createdAt,value
2018-01-21T00:02:12.595Z,99.90
2018-01-21T00:04:40.176Z,99.90
2018-01-21T00:07:07.734Z,99.90
2018-01-21T00:09:35.325Z,99.90
2018-01-21T00:12:03.672Z,99.90
2018-01-21T00:14:31.271Z,99.90
2018-01-21T00:16:58.818Z,99.90
2018-01-21T00:19:26.368Z,99.90
2018-01-21T00:21:54.700Z,99.90
2018-01-21T00:24:22.243Z,99.90
2018-01-21T00:26:49.820Z,99.90
2018-01-21T00:29:17.368Z,99.90
2018-01-21T00:31:44.932Z,99.90
2018-01-21T00:34:12.497Z,99.90
2018-01-21T00:36:40.068Z,99.90
2018-01-21T00:39:07.624Z,99.90
2018-01-21T00:41:35.209Z,99.90
2018-01-21T00:44:02.781Z,99.90
2018-01-21T00:46:30.377Z,99.90
2018-01-21T00:48:57.914Z,99.90
2018-01-21T00:51:25.984Z,99.90
2018-01-21T00:53:53.544Z,99.90
2018-01-21T00:56:21.119Z,99.90
2018-01-21T00:58:48.684Z,99.90
2018-01-21T01:01:17.035Z,99.90
2018-01-21T01:03:44.588Z,99.90
2018-01-21T01:06:12.156Z,99.90
2018-01-21T01:08:40.488Z,99.90
2018-01-21T01:11:08.035Z,99.90
2018-01-21T01:13:35.648Z,99.90
2018-01-21T01:16:03.200Z,99.90
2018-01-21T01:18:30.803Z,99.90
2018-01-21T01:20:58.400Z,99.90
2018-01-21T01:23:25.985Z,99.90
2018-01-21T01:25:53.560Z,99.60
2018-01-21T01:28:21.164Z,98.60
2018-01-21T01:30:51.504Z,98.60
2018-01-21T01:33:19.079Z,98.40
2018-01-21T01:35:46.633Z,98.40
2018-01-21T01:38:14.249Z,98.50
2018-01-21T01:40:41.803Z,98.30
2018-01-21T01:43:10.139Z,98.60
2018-01-21T01:45:37.718Z,98.50
2018-01-21T01:48:05.283Z,98.60
2018-01-21T01:50:33.647Z,98.60
2018-01-21T01:53:01.209Z,98.60
2018-01-21T01:55:28.816Z,98.60
2018-01-21T01:57:56.365Z,98.80
2018-01-21T02:00:23.941Z,98.80
2018-01-21T02:02:51.501Z,98.90
2018-01-21T02:05:19.836Z,99.10
2018-01-21T02:07:47.389Z,99.10
2018-01-21T02:10:14.968Z,99.30
2018-01-21T02:12:42.528Z,99.90
2018-01-21T02:15:10.111Z,99.90
2018-01-21T02:17:37.671Z,99.90
2018-01-21T02:20:05.236Z,99.90
2018-01-21T02:22:32.804Z,99.90
2018-01-21T02:25:00.360Z,99.90
2018-01-21T02:27:27.943Z,99.90
2018-01-21T02:29:55.483Z,99.90
2018-01-21T02:32:23.077Z,99.90
2018-01-21T02:34:50.647Z,99.70
2018-01-21T02:37:18.231Z,99.00
2018-01-21T02:39:45.792Z,98.80
2018-01-21T02:42:14.136Z,98.60
2018-01-21T02:44:41.688Z,98.60
2018-01-21T02:47:09.271Z,98.70
2018-01-21T02:49:36.818Z,98.70
2018-01-21T02:52:04.380Z,98.70
2018-01-21T02:54:31.927Z,98.70
2018-01-21T02:56:59.473Z,98.60
2018-01-21T02:59:27.834Z,98.70
2018-01-21T03:01:55.390Z,98.60
2018-01-21T03:04:22.964Z,98.70
2018-01-21T03:06:51.276Z,98.70
2018-01-21T03:09:18.859Z,98.70
2018-01-21T03:11:46.411Z,98.70
2018-01-21T03:14:13.983Z,98.80
2018-01-21T03:16:41.540Z,98.80
2018-01-21T03:19:09.100Z,98.80
2018-01-21T03:21:36.673Z,98.80
2018-01-21T03:24:05.927Z,98.90
2018-01-21T03:26:33.536Z,98.90
2018-01-21T03:29:01.116Z,98.80
2018-01-21T03:31:28.987Z,98.90
2018-01-21T03:33:56.544Z,98.90
2018-01-21T03:36:24.123Z,98.90
2018-01-21T03:38:52.433Z,98.90
2018-01-21T03:41:20.000Z,98.90
2018-01-21T03:43:48.320Z,99.00
2018-01-21T03:46:15.901Z,99.00
2018-01-21T03:48:44.209Z,98.90
2018-01-21T03:51:11.793Z,98.90
2018-01-21T03:53:39.335Z,98.90
2018-01-21T03:56:06.911Z,99.00
2018-01-21T03:58:34.459Z,99.00
2018-01-21T04:01:02.021Z,98.90
2018-01-21T04:03:29.599Z,98.90
2018-01-21T04:05:57.168Z,98.90
2018-01-21T04:08:24.717Z,99.00
2018-01-21T04:10:52.295Z,99.00
2018-01-21T04:13:19.854Z,98.90
2018-01-21T04:15:47.411Z,99.30
2018-01-21T04:18:15.776Z,99.00
2018-01-21T04:20:43.314Z,98.90
2018-01-21T04:23:11.671Z,99.00
2018-01-21T04:25:39.207Z,99.00
2018-01-21T04:28:06.790Z,98.90
2018-01-21T04:30:35.147Z,98.80
2018-01-21T04:33:02.707Z,98.80
2018-01-21T04:35:30.292Z,98.80
2018-01-21T04:37:57.856Z,98.80
2018-01-21T04:40:25.404Z,98.80
2018-01-21T04:42:55.770Z,98.80
2018-01-21T04:45:24.075Z,98.80
2018-01-21T04:47:51.656Z,98.80
2018-01-21T04:50:19.975Z,98.70
2018-01-21T04:52:47.523Z,98.70
2018-01-21T04:55:15.089Z,98.70
2018-01-21T04:57:42.658Z,98.70
2018-01-21T05:00:10.260Z,98.70
2018-01-21T05:02:37.847Z,98.80
2018-01-21T05:05:05.440Z,98.80
2018-01-21T05:07:32.993Z,98.80
2018-01-21T05:10:00.740Z,98.80
2018-01-21T05:12:28.302Z,98.70
2018-01-21T05:14:56.640Z,98.70
2018-01-21T05:17:24.198Z,98.70
2018-01-21T05:19:52.542Z,99.00
2018-01-21T05:22:20.082Z,98.70
2018-01-21T05:24:48.418Z,98.80
2018-01-21T05:27:15.968Z,98.80
2018-01-21T05:29:43.511Z,98.80
2018-01-21T05:32:11.082Z,98.80
2018-01-21T05:34:38.629Z,98.80
2018-01-21T05:37:06.970Z,98.90
2018-01-21T05:39:34.509Z,98.90
2018-01-21T05:42:02.834Z,99.00
2018-01-21T05:44:30.391Z,98.90
2018-01-21T05:46:58.738Z,98.90
2018-01-21T05:49:26.281Z,98.90
2018-01-21T05:51:53.864Z,98.80
2018-01-21T05:54:22.171Z,98.80
2018-01-21T05:56:50.502Z,98.80
2018-01-21T05:59:18.059Z,98.80
2018-01-21T06:01:46.395Z,99.00
2018-01-21T06:04:13.958Z,99.00
2018-01-21T06:06:41.552Z,99.00
2018-01-21T06:09:09.133Z,99.00
2018-01-21T06:11:36.695Z,99.00
2018-01-21T06:14:05.032Z,98.90
2018-01-21T06:16:32.579Z,98.90
2018-01-21T06:19:00.965Z,99.00
2018-01-21T06:21:28.519Z,99.00
2018-01-21T06:23:56.091Z,99.00
2018-01-21T06:26:23.646Z,99.00
2018-01-21T06:28:51.210Z,99.00
2018-01-21T06:31:19.529Z,99.10
2018-01-21T06:33:47.099Z,99.10
2018-01-21T06:36:15.413Z,99.30
2018-01-21T06:38:42.985Z,99.30
2018-01-21T06:41:11.307Z,99.60
2018-01-21T06:43:38.875Z,99.60
2018-01-21T06:46:07.197Z,99.90
2018-01-21T06:48:34.747Z,99.90
2018-01-21T06:51:02.330Z,99.90
2018-01-21T06:53:30.687Z,99.90
2018-01-21T06:55:58.256Z,99.90
2018-01-21T06:58:25.928Z,99.90
2018-01-21T07:00:53.561Z,99.90
2018-01-21T07:03:21.078Z,99.90
2018-01-21T07:05:49.413Z,99.90
2018-01-21T07:08:16.964Z,99.90
2018-01-21T07:10:45.293Z,99.90
2018-01-21T07:13:12.840Z,99.90
2018-01-21T07:15:40.427Z,99.90
2018-01-21T07:18:08.741Z,99.90
2018-01-21T07:20:37.069Z,99.90
2018-01-21T07:23:04.613Z,99.90
2018-01-21T07:25:32.178Z,99.90
2018-01-21T07:27:59.731Z,99.90
2018-01-21T07:30:27.311Z,99.90
2018-01-21T07:32:54.870Z,99.90
2018-01-21T07:35:22.452Z,99.90
2018-01-21T07:37:50.751Z,99.90
2018-01-21T07:40:19.074Z,99.80
2018-01-21T07:42:46.640Z,99.80
2018-01-21T07:45:14.969Z,99.20
2018-01-21T07:47:42.527Z,99.10
2018-01-21T07:50:10.842Z,99.20
2018-01-21T07:52:38.423Z,99.50
2018-01-21T07:55:05.995Z,99.10
2018-01-21T07:57:34.380Z,98.90
2018-01-21T08:00:01.928Z,98.90
2018-01-21T08:02:29.491Z,99.00
2018-01-21T08:04:57.038Z,99.00
2018-01-21T08:07:25.379Z,99.10
2018-01-21T08:09:52.935Z,99.00
2018-01-21T08:12:21.272Z,99.00
2018-01-21T08:14:49.583Z,99.10
2018-01-21T08:17:17.146Z,99.00
2018-01-21T08:19:44.686Z,99.00
2018-01-21T08:22:12.252Z,98.90
2018-01-21T08:24:39.797Z,98.80
2018-01-21T08:27:07.362Z,98.70
2018-01-21T08:29:35.671Z,98.70
2018-01-21T08:32:03.211Z,98.70
2018-01-21T08:34:36.497Z,98.60
2018-01-21T08:37:09.741Z,98.60
2018-01-21T08:39:43.007Z,98.60
2018-01-21T08:45:11.427Z,98.50
2018-01-21T08:47:38.987Z,98.50
2018-01-21T08:50:06.536Z,98.40
2018-01-21T08:52:34.121Z,98.40
2018-01-21T08:55:01.667Z,98.40
2018-01-21T08:57:29.273Z,98.50
2018-01-21T08:59:56.832Z,98.50
2018-01-21T09:02:24.375Z,98.60
2018-01-21T09:04:51.938Z,98.60
2018-01-21T09:07:19.487Z,98.60
2018-01-21T09:09:47.044Z,98.50
2018-01-21T09:12:14.583Z,98.50
2018-01-21T09:14:42.139Z,98.40
2018-01-21T09:17:09.695Z,98.30
2018-01-21T09:19:37.258Z,98.10
2018-01-21T09:22:04.819Z,98.20
2018-01-21T09:24:34.172Z,98.30
2018-01-21T09:27:01.715Z,98.30
2018-01-21T09:29:29.267Z,98.40
2018-01-21T09:31:56.827Z,98.30
2018-01-21T09:34:24.371Z,98.30
2018-01-21T09:36:51.963Z,98.20
2018-01-21T09:39:20.270Z,98.10
2018-01-21T09:41:47.827Z,98.10
2018-01-21T09:44:15.368Z,97.90
2018-01-21T09:46:42.972Z,97.90
2018-01-21T09:49:10.526Z,98.00
2018-01-21T09:51:38.092Z,97.90
2018-01-21T09:54:05.652Z,97.90
2018-01-21T09:56:33.999Z,97.70
2018-01-21T09:59:01.535Z,97.70
2018-01-21T10:01:29.847Z,97.60
2018-01-21T10:03:58.178Z,97.40
2018-01-21T10:06:25.722Z,97.40
2018-01-21T10:08:54.052Z,97.40
2018-01-21T10:11:21.591Z,97.40
2018-01-21T10:13:49.275Z,97.30
2018-01-21T10:16:16.791Z,97.50
2018-01-21T10:18:45.119Z,97.30
2018-01-21T10:21:12.661Z,97.30
2018-01-21T10:23:40.219Z,97.20
2018-01-21T10:26:07.787Z,97.00
2018-01-21T10:28:35.343Z,97.00
2018-01-21T10:31:02.882Z,97.10
2018-01-21T10:33:30.451Z,97.10
2018-01-21T10:36:00.390Z,97.10
2018-01-21T10:38:29.797Z,97.10
2018-01-21T10:41:00.191Z,97.40
2018-01-21T10:43:30.780Z,97.40
2018-01-21T10:46:02.098Z,97.30
2018-01-21T10:48:30.356Z,97.30
2018-01-21T10:51:00.152Z,97.10
2018-01-21T10:53:30.259Z,97.00
2018-01-21T10:56:00.483Z,97.10
2018-01-21T10:58:34.687Z,97.00
2018-01-21T11:01:02.787Z,97.00
2018-01-21T11:03:34.419Z,97.00
2018-01-21T11:06:07.201Z,96.80
2018-01-21T11:08:36.511Z,96.70
2018-01-21T11:11:09.626Z,96.90
2018-01-21T11:13:43.058Z,96.90
2018-01-21T11:16:16.408Z,96.70
2018-01-21T11:18:44.025Z,96.70
2018-01-21T11:21:15.887Z,96.80
2018-01-21T11:23:47.172Z,96.80
2018-01-21T11:26:16.712Z,96.90
2018-01-21T11:28:47.769Z,96.90
2018-01-21T11:31:21.522Z,96.90
2018-01-21T11:33:52.830Z,97.00
2018-01-21T11:36:25.919Z,96.90
2018-01-21T11:38:58.275Z,96.60
2018-01-21T11:41:29.035Z,96.60
2018-01-21T11:43:56.684Z,96.40
2018-01-21T11:46:28.729Z,96.50
2018-01-21T11:49:02.620Z,96.50
2018-01-21T11:51:33.761Z,96.60
2018-01-21T11:54:01.586Z,96.80
2018-01-21T11:56:30.134Z,96.80
2018-01-21T11:58:59.459Z,96.90
2018-01-21T12:01:27.988Z,96.90
2018-01-21T12:04:00.059Z,96.90
2018-01-21T12:06:31.675Z,96.90
2018-01-21T12:09:00.902Z,96.90
2018-01-21T12:11:28.877Z,97.00
2018-01-21T12:14:00.948Z,97.20
2018-01-21T12:16:30.436Z,97.10
2018-01-21T12:19:00.228Z,97.00
2018-01-21T12:21:29.524Z,97.10
2018-01-21T12:23:59.972Z,97.10
2018-01-21T12:26:31.361Z,97.00
2018-01-21T12:29:03.946Z,97.30
2018-01-21T12:31:31.535Z,97.30
2018-01-21T12:34:00.323Z,97.30
2018-01-21T12:36:27.885Z,97.30
2018-01-21T12:38:56.211Z,97.30
2018-01-21T12:41:23.764Z,97.30
2018-01-21T12:43:52.114Z,97.40
2018-01-21T12:46:19.691Z,97.40
2018-01-21T12:48:47.264Z,97.50
2018-01-21T12:51:14.810Z,97.40
2018-01-21T12:53:42.379Z,97.30
2018-01-21T12:56:09.931Z,97.40
2018-01-21T12:58:37.498Z,97.30
2018-01-21T13:01:05.064Z,97.30
2018-01-21T13:03:33.372Z,97.10
2018-01-21T13:06:00.955Z,97.10
2018-01-21T13:08:28.529Z,96.90
2018-01-21T13:10:56.878Z,96.70
2018-01-21T13:13:24.434Z,96.70
2018-01-21T13:15:51.995Z,96.40
2018-01-21T13:18:20.675Z,96.60
2018-01-21T13:20:48.250Z,96.60
2018-01-21T13:23:15.793Z,96.50
2018-01-21T13:25:43.377Z,96.40
2018-01-21T13:28:10.991Z,96.50
2018-01-21T13:30:38.558Z,96.40
2018-01-21T13:33:06.099Z,96.30
2018-01-21T13:35:34.355Z,96.20
2018-01-21T13:38:01.944Z,96.20
2018-01-21T13:40:29.488Z,96.20
2018-01-21T13:42:57.807Z,96.00
2018-01-21T13:45:25.353Z,96.00
2018-01-21T13:47:52.964Z,96.10
2018-01-21T13:50:20.499Z,96.10
2018-01-21T13:52:48.315Z,96.00
2018-01-21T13:55:16.561Z,96.00
2018-01-21T13:57:44.128Z,95.90
2018-01-21T14:00:11.671Z,96.00
2018-01-21T14:02:39.248Z,95.80
2018-01-21T14:05:06.839Z,95.60
2018-01-21T14:07:34.391Z,95.60
2018-01-21T14:10:02.684Z,95.60
2018-01-21T14:12:30.335Z,95.90
2018-01-21T14:14:58.688Z,96.10
2018-01-21T14:17:27.147Z,96.10
2018-01-21T14:19:54.709Z,96.20
2018-01-21T14:22:22.307Z,96.30
2018-01-21T14:24:50.634Z,96.20
2018-01-21T14:27:18.191Z,96.50
2018-01-21T14:29:47.012Z,96.20
2018-01-21T14:32:15.320Z,96.10
2018-01-21T14:34:43.685Z,96.00
2018-01-21T14:37:11.250Z,96.00
2018-01-21T14:39:38.831Z,96.00
2018-01-21T14:42:06.703Z,96.00
2018-01-21T14:44:34.274Z,96.00
2018-01-21T14:47:03.455Z,95.90
2018-01-21T14:49:31.532Z,95.90
2018-01-21T14:51:59.088Z,96.00
2018-01-21T14:54:26.662Z,96.10
2018-01-21T14:56:54.193Z,96.20
2018-01-21T14:59:21.769Z,95.90
2018-01-21T15:01:49.304Z,95.90
2018-01-21T15:04:17.619Z,96.00
2018-01-21T15:06:45.163Z,95.90
2018-01-21T15:09:12.698Z,96.00
2018-01-21T15:11:40.327Z,96.00
2018-01-21T15:14:07.867Z,96.00
2018-01-21T15:16:35.461Z,96.00
2018-01-21T15:19:03.816Z,95.80
2018-01-21T15:21:31.404Z,95.80
2018-01-21T15:23:58.983Z,95.80
2018-01-21T15:26:27.468Z,95.60
2018-01-21T15:28:55.015Z,95.40
2018-01-21T15:31:22.599Z,95.50
2018-01-21T15:33:50.150Z,95.70
2018-01-21T15:36:18.475Z,95.80
2018-01-21T15:38:46.008Z,95.70
2018-01-21T15:41:13.574Z,95.80
2018-01-21T15:43:41.114Z,95.80
2018-01-21T15:46:08.674Z,95.70
2018-01-21T15:48:36.219Z,95.60
2018-01-21T15:51:03.788Z,95.70
2018-01-21T15:53:36.937Z,95.90
2018-01-21T15:56:05.182Z,96.00
2018-01-21T15:58:32.742Z,95.70
2018-01-21T16:01:01.045Z,95.60
2018-01-21T16:03:28.655Z,95.60
2018-01-21T16:05:56.211Z,95.50
2018-01-21T16:08:24.539Z,95.80
2018-01-21T16:10:52.666Z,95.80
2018-01-21T16:13:20.225Z,95.90
2018-01-21T16:15:47.774Z,96.10
2018-01-21T16:18:15.344Z,96.30
2018-01-21T16:20:42.879Z,96.20
2018-01-21T16:23:10.470Z,96.10
2018-01-21T16:25:38.265Z,96.00
2018-01-21T16:28:05.831Z,96.00
2018-01-21T16:30:33.396Z,96.20
2018-01-21T16:33:07.559Z,96.30
2018-01-21T16:35:36.144Z,96.30
2018-01-21T16:38:16.488Z,96.40
2018-01-21T16:40:44.262Z,96.40
2018-01-21T16:43:12.060Z,96.40
2018-01-21T16:45:40.431Z,96.50
2018-01-21T16:48:07.964Z,96.50
2018-01-21T16:50:35.535Z,96.50
2018-01-21T16:53:03.084Z,96.60
2018-01-21T16:55:32.034Z,96.60
2018-01-21T16:57:59.641Z,96.60
2018-01-21T17:00:27.258Z,96.70
2018-01-21T17:02:55.565Z,96.80
2018-01-21T17:05:23.151Z,96.80
2018-01-21T17:07:50.689Z,96.80
2018-01-21T17:10:18.263Z,96.80
2018-01-21T17:12:45.844Z,96.80
2018-01-21T17:15:13.403Z,96.80
2018-01-21T17:17:40.938Z,96.80
2018-01-21T17:20:08.472Z,96.80
2018-01-21T17:22:36.030Z,96.80
2018-01-21T17:25:03.595Z,96.80
2018-01-21T17:27:31.176Z,96.80
2018-01-21T17:29:58.712Z,96.70
2018-01-21T17:32:26.263Z,96.70
2018-01-21T17:34:54.600Z,96.70
2018-01-21T17:37:22.168Z,96.70
2018-01-21T17:39:49.702Z,96.80
2018-01-21T17:42:17.280Z,96.80
2018-01-21T17:44:44.844Z,97.10
2018-01-21T17:47:12.424Z,96.80
2018-01-21T17:49:39.959Z,96.60
2018-01-21T17:52:07.531Z,96.50
2018-01-21T17:54:35.072Z,96.40
2018-01-21T17:57:02.632Z,96.40
2018-01-21T17:59:30.743Z,96.50
2018-01-21T18:01:58.279Z,96.50
2018-01-21T18:04:25.844Z,96.40
2018-01-21T18:06:53.391Z,96.40
2018-01-21T18:09:20.950Z,96.40
2018-01-21T18:11:49.259Z,96.40
2018-01-21T18:14:17.591Z,96.40
2018-01-21T18:16:45.155Z,96.40
2018-01-21T18:19:12.742Z,96.50
2018-01-21T18:21:40.287Z,96.50
2018-01-21T18:24:09.321Z,96.50
2018-01-21T18:26:36.892Z,96.50
2018-01-21T18:29:04.460Z,96.60
2018-01-21T18:31:32.007Z,96.60
2018-01-21T18:33:59.571Z,96.60
2018-01-21T18:36:27.144Z,96.60
2018-01-21T18:38:55.448Z,96.70
2018-01-21T18:41:23.775Z,96.50
2018-01-21T18:43:51.322Z,96.50
2018-01-21T18:46:18.891Z,96.40
2018-01-21T18:48:46.432Z,96.50
2018-01-21T18:51:13.993Z,96.50
2018-01-21T18:53:42.308Z,96.70
2018-01-21T18:56:09.871Z,96.70
2018-01-21T18:58:38.185Z,96.60
2018-01-21T19:01:05.746Z,96.60
2018-01-21T19:03:33.295Z,96.50
2018-01-21T19:06:00.882Z,96.40
2018-01-21T19:08:28.443Z,96.40
2018-01-21T19:10:56.014Z,96.40
2018-01-21T19:13:24.348Z,96.10
2018-01-21T19:15:51.888Z,96.10
2018-01-21T19:18:19.476Z,96.20
2018-01-21T19:20:47.796Z,96.40
2018-01-21T19:23:15.359Z,96.40
2018-01-21T19:25:43.694Z,96.60
2018-01-21T19:28:11.239Z,96.60
2018-01-21T19:30:39.400Z,96.40
2018-01-21T19:33:06.959Z,96.30
2018-01-21T19:35:34.540Z,96.40
2018-01-21T19:38:02.148Z,96.30
2018-01-21T19:40:30.502Z,95.30
2018-01-21T19:43:02.685Z,95.40
2018-01-21T19:45:30.999Z,95.70
2018-01-21T19:47:58.720Z,95.40
2018-01-21T19:50:26.260Z,95.50
2018-01-21T19:52:54.562Z,95.90
2018-01-21T19:55:22.903Z,95.70
2018-01-21T19:57:50.511Z,95.50
2018-01-21T20:00:18.077Z,95.50
2018-01-21T20:02:45.621Z,95.70
2018-01-21T20:05:13.191Z,95.70
2018-01-21T20:07:40.759Z,95.90
2018-01-21T20:10:08.327Z,95.80
2018-01-21T20:12:35.886Z,95.80
2018-01-21T20:15:03.489Z,96.10
2018-01-21T20:17:31.118Z,96.20
2018-01-21T20:19:58.677Z,95.80
2018-01-21T20:22:26.223Z,95.90
2018-01-21T20:24:53.791Z,95.90
2018-01-21T20:27:22.091Z,95.90
2018-01-21T20:29:50.404Z,95.60
2018-01-21T20:32:17.974Z,95.60
2018-01-21T20:34:46.284Z,95.90
2018-01-21T20:37:14.609Z,96.10
2018-01-21T20:39:42.149Z,96.10
2018-01-21T20:42:09.703Z,96.30
2018-01-21T20:44:41.470Z,96.20
2018-01-21T20:47:09.589Z,96.30
2018-01-21T20:49:37.126Z,96.40
2018-01-21T20:52:10.443Z,96.50
2018-01-21T20:54:41.240Z,96.40
2018-01-21T20:57:08.859Z,96.40
2018-01-21T20:59:37.323Z,96.80
2018-01-21T21:02:04.903Z,96.50
2018-01-21T21:04:32.492Z,96.50
2018-01-21T21:07:00.830Z,96.60
2018-01-21T21:09:29.413Z,96.70
2018-01-21T21:11:56.976Z,96.80
2018-01-21T21:14:24.548Z,96.90
2018-01-21T21:16:57.194Z,97.00
2018-01-21T21:19:32.231Z,97.10
2018-01-21T21:21:59.875Z,97.20
2018-01-21T21:24:28.412Z,97.30
2018-01-21T21:26:56.144Z,97.30
2018-01-21T21:29:23.889Z,97.40
2018-01-21T21:31:51.692Z,97.40
2018-01-21T21:34:19.545Z,97.40
2018-01-21T21:36:47.156Z,97.30
2018-01-21T21:39:14.924Z,97.20
2018-01-21T21:41:42.535Z,97.00
2018-01-21T21:44:10.128Z,96.80
2018-01-21T21:46:37.675Z,96.70
2018-01-21T21:49:06.002Z,96.80
2018-01-21T21:51:33.556Z,96.80
2018-01-21T21:54:01.896Z,96.70
2018-01-21T21:56:29.492Z,96.70
2018-01-21T21:58:57.027Z,96.60
2018-01-21T22:01:25.361Z,96.40
2018-01-21T22:03:52.895Z,96.40
2018-01-21T22:06:20.465Z,96.40
2018-01-21T22:08:48.115Z,96.30
2018-01-21T22:11:16.019Z,96.10
2018-01-21T22:13:43.595Z,96.20
2018-01-21T22:16:11.152Z,96.20
2018-01-21T22:18:39.465Z,96.40
2018-01-21T22:21:07.100Z,96.30
2018-01-21T22:23:34.767Z,96.50
2018-01-21T22:26:02.368Z,96.50
2018-01-21T22:28:29.903Z,96.60
2018-01-21T22:30:57.488Z,96.70
2018-01-21T22:33:25.092Z,96.50
2018-01-21T22:35:54.233Z,96.40
2018-01-21T22:38:24.727Z,96.30
2018-01-21T22:41:07.563Z,96.20
2018-01-21T22:43:35.262Z,96.30
2018-01-21T22:46:03.612Z,96.00
2018-01-21T22:48:31.796Z,96.00
2018-01-21T22:50:59.727Z,95.90
2018-01-21T22:53:29.233Z,95.70
2018-01-21T22:55:56.863Z,95.70
2018-01-21T22:58:25.191Z,96.10
2018-01-21T23:00:52.736Z,95.70
2018-01-21T23:03:20.287Z,95.80
2018-01-21T23:05:47.834Z,95.70
2018-01-21T23:08:16.159Z,95.40
2018-01-21T23:10:43.721Z,95.40
2018-01-21T23:13:12.050Z,95.40
2018-01-21T23:15:39.592Z,95.40
2018-01-21T23:18:07.927Z,95.50
2018-01-21T23:23:48.943Z,94.80
2018-01-21T23:26:17.754Z,95.10
2018-01-21T23:28:45.318Z,95.10
2018-01-21T23:31:12.869Z,95.40
2018-01-21T23:33:40.434Z,95.10
2018-01-21T23:36:07.992Z,94.90
2018-01-21T23:38:36.324Z,94.70
2018-01-21T23:41:03.876Z,94.50
2018-01-21T23:43:32.189Z,94.70
2018-01-21T23:46:00.520Z,94.60
2018-01-21T23:48:28.075Z,94.60
2018-01-21T23:50:56.400Z,94.80
2018-01-21T23:53:23.935Z,94.70
2018-01-21T23:55:51.496Z,94.60
2018-01-21T23:58:19.038Z,94.50
